OOKB METAR and TAF | Updated Today

OOKB METAR

Khasab Air Base

Observation time: 38 min. ago

OOKB 061850Z AUTO VRB02KT 9999 // NSC 32/22 Q1006 NOSIG

Need help? Read our tutorial on how to read METARs or read the parsed version below.

Khasab Air Base (OOKB) METAR

  • Weather conditions on Thu, 06 Oct 2022 18:50:00 +0000 (38 min. ago):
  • Present conditions: Dry
  • Clouds: No significant clouds are observed
  • Visibility: Greater than 10 km
  • Wind: Variable at 2 knots
  • Temperature: 32 celsius
  • Dew point: 22 celsius
  • Pressure: 1006 millibars
  • Remarks: None


Useful to know...